Time;durP1;ratioP1;P1;durP2;ratioP2;P2;SDS_P1;SDS_P2;PMS_P1;PMS_P2;Temp;Humidity;BMP_temperature;BMP_pressure;BME280_temperature;BME280_humidity;BME280_pressure;Samples;Min_cycle;Max_cycle;Signal;HPM_P1;HPM_P2
2021/11/06 00:01:04;;;;;;;;;;;;;;;20.75;66.14;101371.63;5032416;28;1999;-40
2021/11/06 00:03:31;;;;;;;;;;;;;;;20.97;65.49;101370.63;5024762;28;1657;-40
2021/11/06 00:05:57;;;;;;;;;;;;;;;20.83;65.45;101372.69;5030988;28;1308;-40
2021/11/06 00:08:24;;;;;;;;;;;;;;;20.72;65.65;101382.66;5023752;28;1711;-40
2021/11/06 00:10:51;;;;;;;;;;;;;;;20.73;66.55;101387.91;5029538;28;1660;-40
2021/11/06 00:13:19;;;;;;;;;;;;;;;20.58;65.90;101399.94;5031270;28;1571;-40
2021/11/06 00:15:46;;;;;;;;;;;;;;;20.97;64.21;101400.19;5030123;28;1994;-39
2021/11/06 00:18:12;;;;;;;;;;;;;;;20.83;64.81;101404.97;5021735;28;1841;-39
2021/11/06 00:20:39;;;;;;;;;;;;;;;20.84;65.95;101400.44;5034098;28;1903;-40
2021/11/06 00:23:06;;;;;;;;;;;;;;;20.97;65.23;101411.84;5023725;28;1577;-39
2021/11/06 00:25:32;;;;;;;;;;;;;;;20.75;65.39;101401.22;5032922;28;1952;-40
2021/11/06 00:27:59;;;;;;;;;;;;;;;20.66;65.97;101417.13;5025795;28;1691;-40
2021/11/06 00:30:27;;;;;;;;;;;;;;;20.69;64.52;101417.84;5024320;28;1510;-39
2021/11/06 00:32:53;;;;;;;;;;;;;;;21.04;63.72;101413.00;5032272;28;1791;-39
2021/11/06 00:35:20;;;;;;;;;;;;;;;20.81;64.91;101423.06;5022370;28;1016;-39
2021/11/06 00:37:47;;;;;;;;;;;;;;;20.91;65.15;101417.75;5021423;28;1827;-40
2021/11/06 00:40:14;;;;;;;;;;;;;;;20.85;64.90;101427.19;5030596;28;2290;-40
2021/11/06 00:42:41;;;;;;;;;;;;;;;20.66;65.98;101429.72;5027926;28;1569;-40
2021/11/06 00:45:08;;;;;;;;;;;;;;;20.76;63.92;101430.66;5024827;28;1706;-40
2021/11/06 00:47:36;;;;;;;;;;;;;;;20.96;64.02;101423.56;5025900;28;1540;-40
2021/11/06 00:50:03;;;;;;;;;;;;;;;20.85;64.92;101418.28;5024379;28;1072;-40
2021/11/06 00:52:30;;;;;;;;;;;;;;;20.84;64.54;101409.34;5026747;28;1951;-40
2021/11/06 00:54:56;;;;;;;;;;;;;;;20.98;64.14;101424.28;5028066;28;1786;-40
2021/11/06 00:57:23;;;;;;;;;;;;;;;20.63;65.17;101406.66;5030057;28;1591;-40
2021/11/06 00:59:49;;;;;;;;;;;;;;;20.42;66.20;101422.72;5027968;28;1906;-39
2021/11/06 01:02:15;;;;;;;;;;;;;;;20.85;63.43;101423.66;5022575;28;1700;-40
2021/11/06 01:04:43;;;;;;;;;;;;;;;20.97;63.80;101430.66;5026267;28;1920;-39
2021/11/06 01:07:10;;;;;;;;;;;;;;;20.80;65.08;101412.44;5028432;28;1789;-40
2021/11/06 01:09:36;;;;;;;;;;;;;;;20.77;65.40;101436.88;5027191;28;1749;-40
2021/11/06 01:12:03;;;;;;;;;;;;;;;20.78;64.93;101434.06;5032848;28;1500;-39
2021/11/06 01:14:29;;;;;;;;;;;;;;;20.66;65.52;101433.25;5031351;28;1950;-40
2021/11/06 01:16:56;;;;;;;;;;;;;;;20.61;63.57;101414.00;5027615;28;1809;-40
2021/11/06 01:19:22;;;;;;;;;;;;;;;20.96;62.74;101420.03;5025994;28;1902;-40
2021/11/06 01:21:50;;;;;;;;;;;;;;;20.69;64.10;101412.47;5031228;28;1743;-40
2021/11/06 01:24:16;;;;;;;;;;;;;;;20.90;64.59;101407.13;5022467;28;1677;-40
2021/11/06 01:26:43;;;;;;;;;;;;;;;20.82;64.88;101418.53;5025499;28;1484;-40
2021/11/06 01:29:09;;;;;;;;;;;;;;;20.69;64.68;101424.09;5024609;28;1556;-40
2021/11/06 01:31:37;;;;;;;;;;;;;;;20.76;63.56;101425.28;5034160;28;1498;-39
2021/11/06 01:34:07;;;;;;;;;;;;;;;20.95;62.73;101426.38;5025048;28;1024;-39
2021/11/06 01:36:36;;;;;;;;;;;;;;;20.86;63.98;101436.09;5032776;28;1693;-39
2021/11/06 01:39:09;;;;;;;;;;;;;;;20.84;64.07;101446.13;5017166;28;1910;-39
2021/11/06 01:41:36;;;;;;;;;;;;;;;20.82;64.07;101430.13;5030661;28;1481;-40
2021/11/06 01:44:05;;;;;;;;;;;;;;;20.80;63.89;101425.88;5023377;28;1837;-40
2021/11/06 01:46:33;;;;;;;;;;;;;;;20.78;63.42;101439.44;5029335;28;1734;-39
2021/11/06 01:49:00;;;;;;;;;;;;;;;20.83;62.81;101445.28;5027841;28;2064;-40
2021/11/06 01:51:29;;;;;;;;;;;;;;;20.69;64.68;101448.28;5032961;28;1667;-40
2021/11/06 01:53:55;;;;;;;;;;;;;;;20.92;63.62;101440.94;5033625;28;1663;-39
2021/11/06 01:56:28;;;;;;;;;;;;;;;20.76;64.35;101454.84;5027642;28;1470;-40
2021/11/06 01:58:58;;;;;;;;;;;;;;;20.70;64.42;101459.91;5032373;28;1447;-39
2021/11/06 02:01:28;;;;;;;;;;;;;;;20.83;63.35;101473.97;5032343;28;1950;-39
2021/11/06 02:03:57;;;;;;;;;;;;;;;20.91;62.99;101458.06;5022851;28;1461;-40
2021/11/06 02:06:26;;;;;;;;;;;;;;;20.76;63.89;101454.00;5014523;28;1724;-40
2021/11/06 02:08:55;;;;;;;;;;;;;;;20.56;65.11;101458.34;5028802;28;1085;-40
2021/11/06 02:11:22;;;;;;;;;;;;;;;20.39;66.07;101455.25;5033323;28;1609;-40
2021/11/06 02:13:54;;;;;;;;;;;;;;;20.41;66.14;101463.13;5022529;28;1548;-40
2021/11/06 02:16:21;;;;;;;;;;;;;;;20.80;63.30;101455.44;5024893;28;1925;-40
2021/11/06 02:18:50;;;;;;;;;;;;;;;20.79;63.79;101448.34;5015366;28;2043;-40
2021/11/06 02:21:18;;;;;;;;;;;;;;;20.61;64.66;101454.31;5020793;28;1954;-40
2021/11/06 02:23:49;;;;;;;;;;;;;;;20.38;65.87;101453.50;5032327;28;1531;-40
2021/11/06 02:26:17;;;;;;;;;;;;;;;20.27;65.40;101443.69;5031739;28;1669;-40
2021/11/06 02:28:49;;;;;;;;;;;;;;;20.31;64.16;101452.31;5018679;28;2063;-40
2021/11/06 02:31:15;;;;;;;;;;;;;;;20.89;62.48;101441.22;5029228;28;1817;-40
2021/11/06 02:33:46;;;;;;;;;;;;;;;20.90;63.34;101434.00;5018297;28;1412;-40
2021/11/06 02:36:15;;;;;;;;;;;;;;;20.70;63.32;101459.91;5031493;28;1705;-40
2021/11/06 02:38:45;;;;;;;;;;;;;;;20.43;64.81;101456.69;5023009;28;1540;-40
2021/11/06 02:41:15;;;;;;;;;;;;;;;20.30;65.79;101460.53;5022101;28;1989;-39
2021/11/06 02:43:45;;;;;;;;;;;;;;;20.46;63.23;101471.69;5018990;28;1795;-40
2021/11/06 02:46:13;;;;;;;;;;;;;;;20.84;62.58;101484.59;5023800;28;1703;-40
2021/11/06 02:48:42;;;;;;;;;;;;;;;20.77;62.64;101491.50;5029981;28;1658;-40
2021/11/06 02:51:11;;;;;;;;;;;;;;;20.55;63.60;101508.53;5021001;28;2192;-40
2021/11/06 02:53:40;;;;;;;;;;;;;;;20.34;64.83;101515.69;5026929;28;1561;-40
2021/11/06 02:56:10;;;;;;;;;;;;;;;20.26;65.56;101519.84;5015260;28;1091;-40
2021/11/06 02:58:39;;;;;;;;;;;;;;;20.55;62.84;101530.03;5029877;28;1799;-40
2021/11/06 03:01:10;;;;;;;;;;;;;;;20.89;62.25;101535.31;5121188;23;3645;-40
2021/11/06 03:03:53;;;;;;;;;;;;;;;20.66;63.30;101540.75;4990548;28;1775;-40
2021/11/06 03:06:28;;;;;;;;;;;;;;;20.50;63.59;101531.41;4976733;28;1658;-40
2021/11/06 03:08:55;;;;;;;;;;;;;;;20.32;65.26;101547.19;4988554;28;1219;-40
2021/11/06 03:11:32;;;;;;;;;;;;;;;20.36;64.47;101551.34;4991438;28;1693;-40
2021/11/06 03:14:00;;;;;;;;;;;;;;;20.63;62.17;101546.41;4992721;28;1548;-40
2021/11/06 03:16:28;;;;;;;;;;;;;;;20.85;63.11;101539.25;4995155;28;1754;-40
2021/11/06 03:18:54;;;;;;;;;;;;;;;20.71;63.77;101528.78;4996461;28;1303;-40
2021/11/06 03:21:31;;;;;;;;;;;;;;;20.42;63.70;101553.50;4996232;28;1906;-40
2021/11/06 03:23:58;;;;;;;;;;;;;;;20.35;65.03;101565.72;4982657;28;1375;-40
2021/11/06 03:26:25;;;;;;;;;;;;;;;20.32;64.46;101560.63;4996341;28;2011;-40
2021/11/06 03:28:52;;;;;;;;;;;;;;;20.69;62.71;101557.63;4996320;28;1783;-40
2021/11/06 03:31:20;;;;;;;;;;;;;;;20.80;62.27;101553.06;4995733;28;1064;-40
2021/11/06 03:33:46;;;;;;;;;;;;;;;20.77;63.44;101544.38;4995755;28;1424;-40
2021/11/06 03:36:13;;;;;;;;;;;;;;;20.45;63.47;101547.88;4996050;28;2034;-40
2021/11/06 03:38:40;;;;;;;;;;;;;;;20.34;64.18;101558.66;4996281;28;1954;-40
2021/11/06 03:41:09;;;;;;;;;;;;;;;20.58;62.99;101555.78;4995709;28;1906;-40
2021/11/06 03:43:42;;;;;;;;;;;;;;;20.77;62.32;101553.31;4995654;28;1528;-40
2021/11/06 03:46:09;;;;;;;;;;;;;;;20.69;63.28;101546.84;4995782;28;1944;-40
2021/11/06 03:48:46;;;;;;;;;;;;;;;20.43;64.11;101569.53;4995584;28;2037;-40
2021/11/06 03:51:14;;;;;;;;;;;;;;;20.27;64.82;101561.84;4995208;28;1965;-40
2021/11/06 03:53:41;;;;;;;;;;;;;;;20.31;63.57;101567.81;4987248;28;1500;-41
2021/11/06 03:56:09;;;;;;;;;;;;;;;20.51;62.28;101576.91;4996131;28;1037;-40
2021/11/06 03:58:36;;;;;;;;;;;;;;;20.75;62.52;101555.28;4995956;28;1773;-40
2021/11/06 04:01:05;;;;;;;;;;;;;;;20.64;62.41;101560.69;4995320;28;1902;-40
2021/11/06 04:03:35;;;;;;;;;;;;;;;20.41;63.69;101558.03;4976309;28;1772;-40
2021/11/06 04:06:05;;;;;;;;;;;;;;;20.32;64.31;101574.06;4995724;28;1103;-40
2021/11/06 04:08:39;;;;;;;;;;;;;;;20.25;63.61;101563.81;4985584;28;1513;-40
2021/11/06 04:11:12;;;;;;;;;;;;;;;20.81;61.22;101559.28;4989163;28;1862;-40
2021/11/06 04:13:39;;;;;;;;;;;;;;;20.84;62.02;101541.06;4995878;28;1104;-40
2021/11/06 04:16:10;;;;;;;;;;;;;;;20.75;62.48;101546.34;4995208;28;1695;-40
2021/11/06 04:18:36;;;;;;;;;;;;;;;20.31;63.97;101549.00;4995433;28;1690;-40
2021/11/06 04:21:04;;;;;;;;;;;;;;;20.11;64.94;101542.56;4994949;28;1902;-41
2021/11/06 04:23:34;;;;;;;;;;;;;;;20.42;63.31;101556.19;4995432;28;1783;-40
2021/11/06 04:26:01;;;;;;;;;;;;;;;20.62;63.93;101547.38;4995689;28;1008;-40
2021/11/06 04:28:28;;;;;;;;;;;;;;;20.32;64.84;101557.94;4993948;28;1906;-40
2021/11/06 04:30:56;;;;;;;;;;;;;;;20.15;64.84;101570.88;4995239;28;1854;-40
2021/11/06 04:33:28;;;;;;;;;;;;;;;20.10;65.52;101581.16;4995148;28;1754;-40
2021/11/06 04:35:54;;;;;;;;;;;;;;;20.55;63.22;101577.53;4991249;28;1594;-40
2021/11/06 04:38:22;;;;;;;;;;;;;;;20.57;64.01;101591.69;4994870;28;1946;-40
2021/11/06 04:40:49;;;;;;;;;;;;;;;20.27;64.78;101601.25;4995156;28;1981;-40
2021/11/06 04:43:16;;;;;;;;;;;;;;;20.13;65.00;101610.44;4995376;28;2005;-40
2021/11/06 04:45:45;;;;;;;;;;;;;;;20.35;64.16;101612.28;4994880;28;1384;-39
2021/11/06 04:48:15;;;;;;;;;;;;;;;20.67;64.47;101616.84;4993820;28;1588;-40
2021/11/06 04:50:57;;;;;;;;;;;;;;;20.52;65.02;101615.41;4995509;28;1757;-40
2021/11/06 04:53:24;;;;;;;;;;;;;;;20.27;65.60;101612.88;4990727;28;2786;-40
2021/11/06 04:56:08;;;;;;;;;;;;;;;20.19;66.13;101619.81;4993667;28;1482;-40
2021/11/06 04:58:36;;;;;;;;;;;;;;;20.56;64.50;101622.25;4959529;28;1622;-40
2021/11/06 05:01:02;;;;;;;;;;;;;;;20.66;65.09;101605.25;4993409;28;2112;-40
2021/11/06 05:03:30;;;;;;;;;;;;;;;20.49;65.30;101613.81;4994189;28;1528;-40
2021/11/06 05:06:05;;;;;;;;;;;;;;;20.34;65.06;101596.28;4993174;28;1721;-39
2021/11/06 05:08:34;;;;;;;;;;;;;;;20.21;66.45;101624.13;4992012;28;1639;-40
2021/11/06 05:11:04;;;;;;;;;;;;;;;20.62;64.74;101633.38;4993501;28;1356;-39
2021/11/06 05:13:32;;;;;;;;;;;;;;;20.70;64.56;101629.22;4994069;28;1351;-39
2021/11/06 05:15:59;;;;;;;;;;;;;;;20.41;66.08;101618.97;4990300;28;1452;-40
2021/11/06 05:18:27;;;;;;;;;;;;;;;20.25;65.76;101619.34;4996519;28;2038;-40
2021/11/06 05:20:53;;;;;;;;;;;;;;;20.26;65.87;101648.75;5004978;28;1906;-40
2021/11/06 05:23:26;;;;;;;;;;;;;;;20.63;65.59;101628.84;4994798;28;1089;-40
2021/11/06 05:25:57;;;;;;;;;;;;;;;20.72;65.04;101629.94;4993958;28;1488;-40
2021/11/06 05:28:23;;;;;;;;;;;;;;;20.42;66.03;101645.69;4993549;28;1346;-40
2021/11/06 05:30:51;;;;;;;;;;;;;;;20.23;67.30;101651.72;4993603;28;1486;-40
2021/11/06 05:33:18;;;;;;;;;;;;;;;20.25;65.92;101651.56;5001250;28;1801;-40
2021/11/06 05:35:46;;;;;;;;;;;;;;;20.78;65.64;101656.31;5003104;28;1950;-40
2021/11/06 05:38:14;;;;;;;;;;;;;;;20.52;66.37;101664.63;4950891;28;11001;-40
2021/11/06 05:40:46;;;;;;;;;;;;;;;20.25;66.78;101667.69;4903936;28;13817;-40
2021/11/06 05:43:12;;;;;;;;;;;;;;;20.49;66.71;101699.78;4960138;28;1951;-40
2021/11/06 05:45:39;;;;;;;;;;;;;;;20.55;65.83;101683.22;4973411;28;1773;-43
2021/11/06 05:48:05;;;;;;;;;;;;;;;20.72;65.13;101692.59;4972769;28;1750;-41
2021/11/06 05:50:32;;;;;;;;;;;;;;;20.64;65.54;101701.28;4974145;28;1730;-41
2021/11/06 05:52:58;;;;;;;;;;;;;;;20.47;66.01;101682.94;4968826;28;1831;-40
2021/11/06 05:55:25;;;;;;;;;;;;;;;20.26;67.54;101689.06;4973265;28;1605;-40
2021/11/06 05:57:53;;;;;;;;;;;;;;;20.39;66.40;101701.50;4968180;28;1433;-40
2021/11/06 06:00:21;;;;;;;;;;;;;;;20.86;65.55;101710.31;4965404;28;1985;-40
2021/11/06 06:02:48;;;;;;;;;;;;;;;20.83;65.48;101726.66;4959666;28;1782;-40
2021/11/06 06:05:14;;;;;;;;;;;;;;;20.70;66.80;101744.78;4967270;28;1480;-41
2021/11/06 06:07:41;;;;;;;;;;;;;;;20.43;67.55;101779.06;4972810;28;1530;-40
2021/11/06 06:10:09;;;;;;;;;;;;;;;20.61;66.43;101770.53;4973055;28;1796;-40
2021/11/06 06:12:36;;;;;;;;;;;;;;;20.90;65.92;101775.44;4974205;28;1167;-40
2021/11/06 06:15:04;;;;;;;;;;;;;;;20.95;65.19;101776.78;4973127;28;1646;-40
2021/11/06 06:17:31;;;;;;;;;;;;;;;20.61;66.65;101803.69;4971502;28;1747;-40
2021/11/06 06:19:59;;;;;;;;;;;;;;;20.60;66.57;101801.09;4973698;28;1586;-40
2021/11/06 06:22:25;;;;;;;;;;;;;;;20.48;68.02;101813.63;4973426;28;1977;-40
2021/11/06 06:24:51;;;;;;;;;;;;;;;20.49;68.19;101826.06;4973309;28;1880;-40
2021/11/06 06:27:18;;;;;;;;;;;;;;;20.93;66.31;101797.56;4963453;28;1459;-40
2021/11/06 06:29:45;;;;;;;;;;;;;;;20.90;65.68;101830.06;4966923;28;1610;-40
2021/11/06 06:32:13;;;;;;;;;;;;;;;20.70;67.06;101820.03;4972107;28;2063;-40
2021/11/06 06:34:39;;;;;;;;;;;;;;;20.56;67.89;101835.38;4960379;28;1899;-41
2021/11/06 06:37:06;;;;;;;;;;;;;;;20.54;68.05;101823.91;4965773;28;1843;-40
2021/11/06 06:39:32;;;;;;;;;;;;;;;20.84;67.38;101850.22;4973684;28;1803;-40
2021/11/06 06:41:58;;;;;;;;;;;;;;;20.76;66.92;101822.25;4974118;28;1907;-40
2021/11/06 06:44:25;;;;;;;;;;;;;;;20.73;67.27;101830.53;4972609;28;1833;-41
2021/11/06 06:46:53;;;;;;;;;;;;;;;20.75;66.90;101847.41;4969911;28;1640;-41
2021/11/06 06:49:28;;;;;;;;;;;;;;;20.52;66.90;101825.00;4968113;28;1837;-41
2021/11/06 06:52:02;;;;;;;;;;;;;;;20.38;68.44;101861.00;4969078;28;1662;-40
2021/11/06 06:54:29;;;;;;;;;;;;;;;20.79;67.20;101862.31;4972670;28;1462;-40
2021/11/06 06:56:56;;;;;;;;;;;;;;;20.97;66.59;101876.13;4972224;28;1588;-40
2021/11/06 06:59:34;;;;;;;;;;;;;;;20.83;67.24;101871.84;4971481;28;1998;-40
2021/11/06 07:02:00;;;;;;;;;;;;;;;20.58;67.39;101854.94;4966908;28;1977;-40
2021/11/06 07:04:38;;;;;;;;;;;;;;;20.50;67.60;101869.94;4965790;28;1611;-40
2021/11/06 07:07:19;;;;;;;;;;;;;;;20.59;67.81;101854.00;4964376;28;1799;-40
2021/11/06 07:09:46;;;;;;;;;;;;;;;20.88;66.40;101875.03;4973815;28;1733;-40
2021/11/06 07:12:12;;;;;;;;;;;;;;;20.87;67.18;101881.41;4969885;28;1235;-40
2021/11/06 07:14:39;;;;;;;;;;;;;;;20.62;67.15;101882.47;4967205;28;1888;-41
2021/11/06 07:17:05;;;;;;;;;;;;;;;20.61;67.84;101897.75;4971075;28;2768;-41
2021/11/06 07:19:33;;;;;;;;;;;;;;;20.52;68.11;101897.56;4974017;28;1717;-41
2021/11/06 07:22:00;;;;;;;;;;;;;;;20.58;67.69;101872.88;4972918;28;1910;-41
2021/11/06 07:24:27;;;;;;;;;;;;;;;21.14;66.72;101917.84;4973075;28;1574;-40
2021/11/06 07:26:54;;;;;;;;;;;;;;;21.05;66.40;101912.22;4972693;28;1789;-41
2021/11/06 07:29:20;;;;;;;;;;;;;;;20.86;67.06;101920.00;4972973;28;1729;-41
2021/11/06 07:31:47;;;;;;;;;;;;;;;20.69;66.99;101894.47;4972474;28;1520;-41
2021/11/06 07:34:13;;;;;;;;;;;;;;;20.66;67.65;101903.59;4969755;28;1534;-41
2021/11/06 07:36:41;;;;;;;;;;;;;;;20.75;67.15;101883.22;4964362;28;1826;-41
2021/11/06 07:39:07;;;;;;;;;;;;;;;21.06;66.57;101873.56;4973723;28;1197;-41
2021/11/06 07:41:34;;;;;;;;;;;;;;;20.98;66.88;101886.78;4972199;28;1902;-42
2021/11/06 07:44:00;;;;;;;;;;;;;;;20.88;67.69;101891.16;4969207;28;1659;-41
2021/11/06 07:46:27;;;;;;;;;;;;;;;20.71;67.41;101888.94;4972187;28;1672;-41
2021/11/06 07:48:53;;;;;;;;;;;;;;;20.64;67.95;101865.22;4973110;28;1587;-42
2021/11/06 07:51:20;;;;;;;;;;;;;;;20.56;67.69;101882.91;4973109;28;1725;-40
2021/11/06 07:53:48;;;;;;;;;;;;;;;21.01;67.24;101870.41;4973019;28;1479;-41
2021/11/06 07:56:15;;;;;;;;;;;;;;;21.18;66.41;101865.50;4972675;28;1653;-44
2021/11/06 07:58:41;;;;;;;;;;;;;;;20.93;66.67;101875.53;4973357;28;1712;-42
2021/11/06 08:01:08;;;;;;;;;;;;;;;20.74;68.64;101899.47;4972201;28;1986;-41
2021/11/06 08:03:34;;;;;;;;;;;;;;;20.85;67.25;101894.13;4971183;28;1635;-40
2021/11/06 08:06:01;;;;;;;;;;;;;;;20.75;67.52;101914.59;4969010;28;1797;-41
2021/11/06 08:08:27;;;;;;;;;;;;;;;20.64;68.37;101905.53;4972846;28;1373;-40
2021/11/06 08:10:55;;;;;;;;;;;;;;;20.90;67.08;101901.81;4970545;28;1555;-40
2021/11/06 08:13:22;;;;;;;;;;;;;;;21.00;66.95;101917.09;4971735;28;1368;-40
2021/11/06 08:15:48;;;;;;;;;;;;;;;20.83;67.61;101931.00;4975779;28;1791;-38
2021/11/06 08:18:15;;;;;;;;;;;;;;;20.76;67.99;101925.25;4974581;28;1538;-40
2021/11/06 08:20:41;;;;;;;;;;;;;;;20.58;69.39;101922.13;4970111;28;1779;-40
2021/11/06 08:23:08;;;;;;;;;;;;;;;20.46;69.83;101915.84;4974351;28;1981;-39
2021/11/06 08:25:34;;;;;;;;;;;;;;;20.87;68.63;101929.81;4975774;28;1437;-40
2021/11/06 08:28:03;;;;;;;;;;;;;;;20.89;68.19;101941.28;4975926;28;1637;-40
2021/11/06 08:30:29;;;;;;;;;;;;;;;21.00;69.13;101951.19;4971895;28;1754;-41
2021/11/06 08:32:57;;;;;;;;;;;;;;;20.55;70.01;101937.59;4973882;28;1911;-42
2021/11/06 08:35:26;;;;;;;;;;;;;;;20.51;70.65;101966.53;4965315;28;1867;-42
2021/11/06 08:37:52;;;;;;;;;;;;;;;20.45;72.67;101967.00;4930289;28;10776;-43
2021/11/06 08:40:19;;;;;;;;;;;;;;;20.86;70.04;101953.13;4971260;28;2285;-41
2021/11/06 08:42:45;;;;;;;;;;;;;;;21.05;69.84;101960.63;4971895;28;1903;-41
2021/11/06 08:47:56;;;;;;;;;;;;;;;20.90;70.31;101959.13;4965205;28;1755;-41
2021/11/06 08:50:24;;;;;;;;;;;;;;;20.70;70.01;101931.09;4976325;28;1043;-41
2021/11/06 08:53:12;;;;;;;;;;;;;;;20.67;70.34;101947.44;4974729;28;1826;-41
2021/11/06 08:58:21;;;;;;;;;;;;;;;21.31;69.32;101951.47;4974122;28;2446;-41
2021/11/06 09:00:51;;;;;;;;;;;;;;;21.18;69.16;101951.59;4975522;28;1701;-41
2021/11/06 09:03:20;;;;;;;;;;;;;;;21.01;69.83;101969.91;4974993;28;1906;-41
2021/11/06 09:05:51;;;;;;;;;;;;;;;20.98;70.56;101954.00;4975354;28;1643;-40
2021/11/06 09:08:18;;;;;;;;;;;;;;;20.92;71.19;101961.69;4976066;28;1709;-40
2021/11/06 09:10:45;;;;;;;;;;;;;;;20.89;70.47;101954.75;4972649;28;1555;-41
2021/11/06 09:13:13;;;;;;;;;;;;;;;20.95;70.81;101967.69;4972772;28;1754;-40
2021/11/06 09:15:41;;;;;;;;;;;;;;;21.38;70.07;101971.53;4975239;28;1987;-40
2021/11/06 09:18:11;;;;;;;;;;;;;;;21.42;69.81;101965.78;4970671;28;1778;-40
2021/11/06 09:20:37;;;;;;;;;;;;;;;21.22;70.69;101969.19;4973015;28;1885;-40
2021/11/06 09:23:04;;;;;;;;;;;;;;;20.94;71.38;101984.78;4968480;28;1903;-40
2021/11/06 09:25:30;;;;;;;;;;;;;;;20.84;70.64;101964.97;4972134;28;1506;-40
2021/11/06 09:27:57;;;;;;;;;;;;;;;20.77;71.08;101969.09;4971048;28;1584;-40
2021/11/06 09:30:23;;;;;;;;;;;;;;;20.71;71.88;101967.78;4967521;28;1638;-41
2021/11/06 09:32:50;;;;;;;;;;;;;;;21.03;70.68;101970.66;4975106;28;1768;-40
2021/11/06 09:35:20;;;;;;;;;;;;;;;21.20;69.73;101958.56;4964858;28;1906;-40
2021/11/06 09:37:47;;;;;;;;;;;;;;;21.15;69.82;101951.81;4975645;28;1672;-40
2021/11/06 09:40:13;;;;;;;;;;;;;;;20.86;69.63;101942.38;4963394;28;1672;-40
2021/11/06 09:43:01;;;;;;;;;;;;;;;20.54;68.83;101950.19;4973648;28;2118;-40
2021/11/06 09:45:27;;;;;;;;;;;;;;;20.31;70.75;101932.28;4967500;28;1373;-40
2021/11/06 09:47:54;;;;;;;;;;;;;;;20.38;70.82;101946.97;4974881;28;1814;-40
2021/11/06 09:50:24;;;;;;;;;;;;;;;20.40;70.87;101950.41;4975830;28;1094;-40
2021/11/06 09:52:53;;;;;;;;;;;;;;;20.25;70.35;101937.16;4974804;28;1835;-41
2021/11/06 09:55:21;;;;;;;;;;;;;;;20.16;69.78;101942.34;4974210;28;1588;-40
2021/11/06 09:57:48;;;;;;;;;;;;;;;20.15;70.94;101936.09;4975961;28;1703;-40
2021/11/06 10:00:15;;;;;;;;;;;;;;;20.24;70.16;101931.88;4968776;28;1667;-40
2021/11/06 10:02:42;;;;;;;;;;;;;;;20.49;69.75;101948.81;4970577;28;1910;-40
2021/11/06 10:05:09;;;;;;;;;;;;;;;20.45;70.20;101922.22;4971873;28;1470;-40
2021/11/06 10:07:39;;;;;;;;;;;;;;;20.40;69.93;101939.66;4974390;28;1439;-40
2021/11/06 10:10:12;;;;;;;;;;;;;;;20.30;70.51;101938.63;4974256;28;1521;-41
2021/11/06 10:12:50;;;;;;;;;;;;;;;20.45;69.79;101937.44;4972293;28;1598;-41
2021/11/06 10:15:17;;;;;;;;;;;;;;;20.41;70.29;101941.34;4973047;28;1814;-40
2021/11/06 10:17:44;;;;;;;;;;;;;;;20.24;70.99;101951.53;4964086;28;1447;-40
2021/11/06 10:20:20;;;;;;;;;;;;;;;20.21;70.42;101943.72;4970051;28;1932;-41
2021/11/06 10:22:49;;;;;;;;;;;;;;;20.21;70.98;101948.22;4972678;28;1906;-40
2021/11/06 10:25:17;;;;;;;;;;;;;;;20.26;69.64;101941.53;4963422;28;1533;-41
2021/11/06 10:27:49;;;;;;;;;;;;;;;20.27;70.33;101948.63;4968209;28;1600;-41
2021/11/06 10:30:19;;;;;;;;;;;;;;;20.52;70.25;101965.59;4971106;28;1896;-41
2021/11/06 10:32:55;;;;;;;;;;;;;;;20.60;69.72;101963.19;4970609;28;1760;-41
2021/11/06 10:35:23;;;;;;;;;;;;;;;20.47;70.30;101967.75;4968973;28;2059;-42
2021/11/06 10:37:56;;;;;;;;;;;;;;;20.48;69.71;101974.00;4971318;28;1703;-43
2021/11/06 10:40:23;;;;;;;;;;;;;;;20.53;71.50;101980.75;4968883;28;1546;-42
2021/11/06 10:42:51;;;;;;;;;;;;;;;20.32;71.44;101988.56;4967190;28;1952;-42
2021/11/06 10:45:18;;;;;;;;;;;;;;;20.40;70.77;101979.94;4971849;28;1776;-43
2021/11/06 10:47:53;;;;;;;;;;;;;;;20.36;69.86;101971.25;4965011;28;1315;-42
2021/11/06 10:50:36;;;;;;;;;;;;;;;20.52;69.34;101981.72;4967230;28;1559;-42
2021/11/06 10:53:04;;;;;;;;;;;;;;;20.59;70.02;101977.63;4874350;28;10932;-44
2021/11/06 10:55:36;;;;;;;;;;;;;;;20.45;70.33;101973.25;4968111;28;1995;-42
2021/11/06 10:58:03;;;;;;;;;;;;;;;20.40;70.93;101963.81;4974037;28;1607;-42
2021/11/06 11:00:30;;;;;;;;;;;;;;;20.34;71.45;101962.47;4965928;28;1863;-42
2021/11/06 11:03:09;;;;;;;;;;;;;;;20.20;73.05;101949.22;4961533;28;1907;-43
2021/11/06 11:05:57;;;;;;;;;;;;;;;20.23;72.43;101955.22;4970519;28;1422;-42
2021/11/06 11:08:29;;;;;;;;;;;;;;;20.15;73.30;101946.84;4962597;28;1498;-42
2021/11/06 11:11:08;;;;;;;;;;;;;;;20.13;73.53;101959.53;4965434;28;1450;-42
2021/11/06 11:13:50;;;;;;;;;;;;;;;20.18;72.88;101952.00;4958737;28;1783;-42
2021/11/06 11:16:18;;;;;;;;;;;;;;;20.21;73.25;101946.41;4971371;28;1104;-42
2021/11/06 11:18:46;;;;;;;;;;;;;;;20.23;72.06;101925.66;4971638;28;1621;-43
2021/11/06 11:21:15;;;;;;;;;;;;;;;20.15;73.56;101925.34;4971354;28;1718;-42
2021/11/06 11:23:44;;;;;;;;;;;;;;;20.37;71.23;101923.75;4971098;28;1981;-42
2021/11/06 11:26:11;;;;;;;;;;;;;;;20.22;72.97;101932.00;4971607;28;1181;-42
2021/11/06 11:28:40;;;;;;;;;;;;;;;20.16;73.29;101937.84;4966469;28;1803;-43
2021/11/06 11:31:16;;;;;;;;;;;;;;;20.06;73.37;101932.28;4962285;28;1490;-43
2021/11/06 11:33:46;;;;;;;;;;;;;;;20.10;73.14;101940.97;4967055;28;1691;-42
2021/11/06 11:36:26;;;;;;;;;;;;;;;20.27;72.60;101945.94;4972414;28;1834;-42
2021/11/06 11:39:05;;;;;;;;;;;;;;;20.21;72.82;101938.34;4976109;28;1159;-42
2021/11/06 11:41:57;;;;;;;;;;;;;;;20.27;72.67;101928.94;4975262;28;1730;-42
2021/11/06 11:44:39;;;;;;;;;;;;;;;20.30;72.65;101917.16;4975426;28;1965;-42
2021/11/06 11:47:13;;;;;;;;;;;;;;;20.06;71.64;101921.53;4965757;28;1646;-42
2021/11/06 11:49:48;;;;;;;;;;;;;;;20.21;71.34;101924.03;4975176;28;1527;-41
2021/11/06 11:52:21;;;;;;;;;;;;;;;20.14;73.14;101896.81;4969949;28;1727;-41
2021/11/06 11:55:08;;;;;;;;;;;;;;;20.16;74.00;101916.34;4967695;28;1552;-41
2021/11/06 11:57:34;;;;;;;;;;;;;;;20.14;72.57;101917.44;4972588;28;1604;-41
2021/11/06 12:00:02;;;;;;;;;;;;;;;20.16;72.37;101913.66;4966389;28;1300;-41
2021/11/06 12:02:29;;;;;;;;;;;;;;;20.21;72.13;101908.81;4968467;28;1979;-41
2021/11/06 12:05:15;;;;;;;;;;;;;;;20.26;72.15;101927.25;4965311;28;1524;-41
2021/11/06 12:07:42;;;;;;;;;;;;;;;20.16;72.87;101929.78;4963539;28;1574;-41
2021/11/06 12:10:24;;;;;;;;;;;;;;;19.67;70.40;101933.34;4968557;28;1539;-41
2021/11/06 12:12:52;;;;;;;;;;;;;;;20.01;71.96;101944.34;4967220;28;1440;-41
2021/11/06 12:15:18;;;;;;;;;;;;;;;20.22;70.49;101926.63;4964046;28;1486;-41
2021/11/06 12:17:45;;;;;;;;;;;;;;;20.16;70.93;101932.47;4966758;28;1391;-42
2021/11/06 12:20:23;;;;;;;;;;;;;;;20.01;70.45;101928.22;4965117;28;1787;-42
2021/11/06 12:22:50;;;;;;;;;;;;;;;20.08;72.75;101929.50;4968182;28;1906;-41
2021/11/06 12:25:25;;;;;;;;;;;;;;;20.02;73.18;101927.28;4969853;28;1300;-41
2021/11/06 12:27:58;;;;;;;;;;;;;;;19.99;72.11;101946.28;4974264;28;1745;-41
2021/11/06 12:30:30;;;;;;;;;;;;;;;20.12;72.29;101941.72;4966970;28;2720;-42
2021/11/06 12:32:58;;;;;;;;;;;;;;;20.09;71.76;101930.34;4970638;28;1545;-42
2021/11/06 12:35:25;;;;;;;;;;;;;;;20.03;73.98;101943.28;4971867;28;1355;-42
2021/11/06 12:37:52;;;;;;;;;;;;;;;20.27;72.57;101948.63;4972217;28;1752;-42
2021/11/06 12:40:32;;;;;;;;;;;;;;;20.32;72.55;101960.88;4971025;28;1584;-42
2021/11/06 12:43:19;;;;;;;;;;;;;;;20.19;73.85;101948.38;4970404;28;1902;-42
2021/11/06 12:45:49;;;;;;;;;;;;;;;20.02;73.94;101957.66;4970264;28;1375;-42
2021/11/06 12:48:17;;;;;;;;;;;;;;;19.96;73.76;101958.09;4970006;28;1522;-42
2021/11/06 12:50:45;;;;;;;;;;;;;;;20.00;74.49;101956.06;4972589;28;1487;-42
2021/11/06 12:53:12;;;;;;;;;;;;;;;19.96;73.91;101946.53;4971180;28;1417;-42
2021/11/06 12:55:38;;;;;;;;;;;;;;;19.96;73.74;101933.09;4971161;28;1668;-43
2021/11/06 12:58:05;;;;;;;;;;;;;;;20.04;74.51;101938.75;4970886;28;1633;-43
2021/11/06 13:00:33;;;;;;;;;;;;;;;19.98;73.72;101939.22;4972272;28;1795;-42